Novosibirsk, Russia
Current Conditions -  °F | °C
As of 8:30 AM on Monday 24 Nov 2014 (Local Time) from UNNT Reporting Station
Few Clouds Few Clouds  
Wind Chill: -30°   Ceiling: Unl
Heat Index: -8°   Visibility: 6mi
Dew Point: -17°   Wind: 16mph
Humidity: 65%   Direction: 310°NW
Pressure: 29.83"   Gusts: NA
Location:  55.04°N, 82.93°E
Report Text: UNNT 240130Z 31007MPS 9000 FEW016 M22/M27 Q1010 3449025025490140 NOSIG RMK QFE747/0997
Loading
Personal Weather Stations






























Interactive Weather Map New forecast layout! Learn more

10-Day Weather Forecast

Advertisements
Track Severe Weather on mobile